Terminal Aerodrome Forecast
Issued by NWS Melbourne, FL

Current Version | Previous Version | Text Only | Print | Product List | Glossary On
Versions: 1 2 3 4 5 6 7 8 9 10 11 12 13 14
000
FTUS42 KMLB 291958 AAB
TAFVRB
TAF AMD
KVRB 291958Z 2920/3018 27011KT P6SM VCTS SCT020CB OVC060
      TEMPO 2920/2921 VRB15G25KT 2SM +TSRA BKN025CB
     FM292300 VRB03KT P6SM SCT020 SCT040
     FM301300 05007KT P6SM VCSH SCT030 SCT050=

USA.gov is the U.S. government's official web portal to all federal, state and local government web resources and services.